Cambria, Iowa
Current Conditions -  °F | °C
As of 10:35 AM on Monday 24 Nov 2014 (Local Time) from KCNC Reporting Station
Overcast Overcast  
Wind Chill: 15°   Ceiling: 2100
Heat Index: 27°   Visibility: 10mi
Dew Point: 19°   Wind: 15mph
Humidity: 74%   Direction: 290°WNW
Pressure: 29.6"   Gusts: 30mph
Location:  40.7685°N, 93.3285°W
Report Text: KCNC 241635Z AUTO 29013G26KT 10SM OVC021 M03/M07 A2960 RMK AO2
Loading
Personal Weather Stations






























Interactive Weather Map New forecast layout! Learn more

10-Day Weather Forecast

Advertisements
Track Severe Weather on mobile